createdAt,value
2018-04-25T00:00:05.379Z,6.66
2018-04-25T00:05:56.080Z,5.91
2018-04-25T00:11:46.805Z,6.4
2018-04-25T00:17:37.472Z,5.36
2018-04-25T00:23:28.145Z,7.23
2018-04-25T00:29:18.823Z,5.95
2018-04-25T00:35:09.512Z,5.32
2018-04-25T00:41:00.262Z,5.82
2018-04-25T00:46:50.898Z,6.05
2018-04-25T00:52:41.600Z,6.62
2018-04-25T00:58:32.242Z,5.71
2018-04-25T01:04:22.961Z,6.34
2018-04-25T01:10:13.661Z,5.87
2018-04-25T01:16:04.314Z,5.62
2018-04-25T01:21:54.978Z,5.71
2018-04-25T01:27:45.665Z,5.54
2018-04-25T01:33:36.346Z,5.68
2018-04-25T01:39:27.070Z,6.89
2018-04-25T01:45:17.727Z,5.68
2018-04-25T01:51:08.381Z,5.9
2018-04-25T01:56:59.070Z,6.3
2018-04-25T02:02:49.770Z,5.72
2018-04-25T02:08:40.429Z,5.81
2018-04-25T02:14:31.082Z,6.74
2018-04-25T02:20:21.759Z,5.4
2018-04-25T02:26:12.462Z,6.11
2018-04-25T02:32:03.171Z,6.07
2018-04-25T02:37:53.837Z,14.11
2018-04-25T02:43:44.568Z,13.01
2018-04-25T02:49:35.207Z,15.85
2018-04-25T02:55:25.847Z,13.49
2018-04-25T03:01:16.519Z,12.37
2018-04-25T03:07:07.275Z,7.31
2018-04-25T03:12:57.909Z,20.32
2018-04-25T03:18:48.563Z,25.2
2018-04-25T03:24:39.263Z,15.56
2018-04-25T03:30:29.913Z,16.96
2018-04-25T03:36:20.614Z,9.65
2018-04-25T03:42:11.293Z,8.14
2018-04-25T03:48:01.954Z,7.41
2018-04-25T03:53:52.684Z,6.46
2018-04-25T03:59:43.356Z,7.17
2018-04-25T04:05:33.974Z,5.77
2018-04-25T04:11:24.686Z,5.49
2018-04-25T04:17:15.316Z,6.1
2018-04-25T04:23:05.991Z,6.45
2018-04-25T04:28:56.648Z,5.25
2018-04-25T04:34:47.322Z,5.97
2018-04-25T04:40:38.012Z,5.57
2018-04-25T04:46:28.723Z,5.99
2018-04-25T04:52:19.330Z,5.5
2018-04-25T04:58:10.058Z,5.7
2018-04-25T05:04:00.681Z,5.5
2018-04-25T05:09:51.382Z,8.02
2018-04-25T05:15:42.078Z,6.87
2018-04-25T05:21:32.704Z,7.12
2018-04-25T05:27:23.384Z,7.55
2018-04-25T05:33:14.076Z,20.88
2018-04-25T05:39:04.774Z,18.67
2018-04-25T05:44:55.425Z,26.83
2018-04-25T05:50:46.099Z,9.87
2018-04-25T05:56:36.810Z,18.25
2018-04-25T06:02:27.461Z,13.22
2018-04-25T06:08:18.107Z,14.98
2018-04-25T06:14:08.793Z,13.74
2018-04-25T06:19:59.461Z,13.2
2018-04-25T06:25:50.125Z,14.57
2018-04-25T06:31:40.798Z,13.05
2018-04-25T06:37:31.473Z,13.52
2018-04-25T06:43:22.193Z,14.89
2018-04-25T06:49:12.881Z,15.24
2018-04-25T06:55:03.529Z,16.4
2018-04-25T07:00:54.220Z,15.68
2018-04-25T07:06:44.929Z,16.83
2018-04-25T07:12:35.555Z,20.19
2018-04-25T07:18:26.221Z,25.02
2018-04-25T07:24:16.919Z,18.59
2018-04-25T07:30:07.629Z,16.79
2018-04-25T07:35:58.286Z,17.74
2018-04-25T07:41:48.947Z,16.8
2018-04-25T07:47:39.710Z,18.67
2018-04-25T07:53:30.348Z,18.12
2018-04-25T07:59:21.053Z,16.44
2018-04-25T08:05:11.751Z,17.1
2018-04-25T08:11:02.521Z,13.4
2018-04-25T08:16:53.135Z,11.4
2018-04-25T08:22:43.923Z,10.35
2018-04-25T08:28:34.559Z,12.05
2018-04-25T08:34:25.281Z,10.06
2018-04-25T08:40:15.932Z,5.96
2018-04-25T08:46:06.659Z,5.96
2018-04-25T08:51:57.380Z,5.75
2018-04-25T08:57:48.123Z,4.4
2018-04-25T09:03:38.843Z,5.53
2018-04-25T09:09:29.527Z,5.4
2018-04-25T09:15:20.268Z,6.19
2018-04-25T09:27:01.734Z,5.34
2018-04-25T09:32:52.414Z,5.17
2018-04-25T09:38:43.182Z,5.16
2018-04-25T09:44:33.886Z,6.58
2018-04-25T09:50:24.609Z,6.09
2018-04-25T09:56:15.318Z,6.16
2018-04-25T10:02:06.064Z,6.27
2018-04-25T10:07:56.816Z,6.9
2018-04-25T10:13:47.518Z,5.58
2018-04-25T10:19:38.356Z,6.99
2018-04-25T10:25:28.984Z,5.55
2018-04-25T10:31:19.720Z,6.31
2018-04-25T10:37:10.475Z,6.73
2018-04-25T10:43:01.235Z,7.49
2018-04-25T10:48:51.954Z,7.79
2018-04-25T10:54:42.691Z,6.55
2018-04-25T11:00:33.458Z,6.21
2018-04-25T11:06:24.218Z,6.08
2018-04-25T11:12:14.962Z,5.9
2018-04-25T11:18:16.368Z,6.74
2018-04-25T11:23:56.465Z,6.52
2018-04-25T11:29:47.186Z,6.57
2018-04-25T11:35:37.996Z,4.79
2018-04-25T11:41:28.735Z,4.84
2018-04-25T11:47:19.713Z,4.33
2018-04-25T11:59:00.999Z,4.44
2018-04-25T12:04:52.533Z,4.21
2018-04-25T12:10:42.474Z,4.91
2018-04-25T12:16:33.233Z,4.01
2018-04-25T12:22:24.023Z,3.79
2018-04-25T12:28:14.773Z,3.93
2018-04-25T12:34:05.539Z,4.3
2018-04-25T12:39:57.181Z,5.01
2018-04-25T12:45:47.042Z,5.18
2018-04-25T12:51:37.818Z,4.51
2018-04-25T12:57:28.595Z,3.8
2018-04-25T13:05:10.912Z,4.3
2018-04-25T13:11:00.943Z,4.7
2018-04-25T13:16:51.526Z,4.76
2018-04-25T13:22:42.260Z,4.28
2018-04-25T13:28:33.059Z,4.64
2018-04-25T13:34:23.949Z,5.79
2018-04-25T13:40:14.597Z,4.5
2018-04-25T13:46:05.483Z,4.03
2018-04-25T13:51:56.183Z,3.83
2018-04-25T13:57:46.899Z,4.53
2018-04-25T14:03:40.162Z,4.49
2018-04-25T14:09:30.900Z,4.28
2018-04-25T14:15:21.676Z,4.51
2018-04-25T14:21:12.414Z,4.43
2018-04-25T14:27:03.260Z,4.95
2018-04-25T14:32:54.004Z,4.89
2018-04-25T14:38:44.746Z,4.89
2018-04-25T14:44:35.631Z,4.69
2018-04-25T14:50:26.280Z,4.14
2018-04-25T14:56:17.046Z,5.4
2018-04-25T15:02:07.791Z,4.36
2018-04-25T15:07:58.567Z,4.72
2018-04-25T15:13:49.372Z,4.84
2018-04-25T15:19:40.168Z,4.79
2018-04-25T15:25:30.929Z,4.68
2018-04-25T15:31:21.687Z,4.71
2018-04-25T15:37:12.433Z,4.86
2018-04-25T15:43:03.196Z,4.83
2018-04-25T15:48:53.934Z,6.06
2018-04-25T15:54:44.754Z,6
2018-04-25T16:00:35.522Z,5.8
2018-04-25T16:06:26.223Z,6.21
2018-04-25T16:12:17.136Z,4.96
2018-04-25T16:18:07.715Z,5.19
2018-04-25T16:23:58.507Z,4.35
2018-04-25T16:29:49.310Z,4.21
2018-04-25T16:35:39.994Z,5.53
2018-04-25T16:41:30.818Z,4.23
2018-04-25T16:47:21.534Z,4.87
2018-04-25T16:53:12.313Z,7.61
2018-04-25T16:59:03.086Z,8.22
2018-04-25T17:04:53.796Z,6.36
2018-04-25T17:10:44.549Z,5.32
2018-04-25T17:16:35.393Z,5.52
2018-04-25T17:22:26.112Z,5.51
2018-04-25T17:28:16.822Z,14.87
2018-04-25T17:37:21.740Z,6.41
2018-04-25T17:43:12.522Z,7.85
2018-04-25T17:49:03.313Z,6.37
2018-04-25T17:54:53.963Z,5.95
2018-04-25T18:00:44.774Z,5.14
2018-04-25T18:06:35.541Z,5.6
2018-04-25T18:12:26.230Z,4.98
2018-04-25T18:18:17.010Z,5.37
2018-04-25T18:24:07.799Z,5.6
2018-04-25T18:29:58.535Z,5.29
2018-04-25T18:35:49.323Z,5.26
2018-04-25T18:41:39.953Z,4.97
2018-04-25T18:47:30.676Z,4.99
2018-04-25T18:53:21.419Z,7.16
2018-04-25T18:59:12.183Z,5.99
2018-04-25T19:05:02.890Z,7.08
2018-04-25T19:10:53.909Z,5.94
2018-04-25T19:16:44.543Z,7.97
2018-04-25T19:22:35.056Z,6.23
2018-04-25T19:28:25.822Z,8.8
2018-04-25T19:34:16.529Z,25.29
2018-04-25T19:40:07.251Z,15.63
2018-04-25T19:45:57.977Z,9.37
2018-04-25T19:51:48.703Z,10.26
2018-04-25T19:57:39.441Z,12.62
2018-04-25T20:03:30.143Z,20.9
2018-04-25T20:09:20.829Z,10.05
2018-04-25T20:15:11.642Z,9.89
2018-04-25T20:21:02.359Z,8.78
2018-04-25T20:26:53.051Z,7.78
2018-04-25T20:32:43.751Z,8.02
2018-04-25T20:38:34.427Z,7.1
2018-04-25T20:44:25.161Z,7.56
2018-04-25T20:50:15.871Z,7.56
2018-04-25T20:56:06.519Z,7.3
2018-04-25T21:01:57.261Z,8.43
2018-04-25T21:07:47.971Z,8.56
2018-04-25T21:13:38.658Z,8.37
2018-04-25T21:19:29.396Z,7.55
2018-04-25T21:25:20.097Z,7.29
2018-04-25T21:31:10.798Z,8.38
2018-04-25T21:37:01.495Z,8.84
2018-04-25T21:42:52.178Z,7.81
2018-04-25T21:48:42.937Z,8.57
2018-04-25T21:54:33.560Z,8.52
2018-04-25T22:00:24.226Z,7.91
2018-04-25T22:06:14.975Z,7.81
2018-04-25T22:12:05.640Z,7.71
2018-04-25T22:17:56.559Z,8.8
2018-04-25T22:29:37.840Z,7.95
2018-04-25T22:35:28.484Z,8.2
2018-04-25T22:41:19.212Z,7.69
2018-04-25T22:47:09.833Z,8.36
2018-04-25T22:53:00.545Z,7.96
2018-04-25T22:58:51.267Z,8.56
2018-04-25T23:04:41.950Z,8.44
2018-04-25T23:10:32.613Z,8.72
2018-04-25T23:16:23.299Z,7.69
2018-04-25T23:22:14.045Z,7.96
2018-04-25T23:28:04.660Z,7.91
2018-04-25T23:33:55.362Z,9.34
2018-04-25T23:39:46.047Z,9.58
2018-04-25T23:45:36.761Z,9.75
2018-04-25T23:51:27.448Z,9.96
2018-04-25T23:57:18.193Z,9.52
